WetterOnline ( http://www.wetteronline.de )

Wetter aktuell Paderborn

Aktuelles Wetter: Bad Lippspringe (158m)

6-stündlich | Neueste Meldungen
Ortszeit Temperatur Wetter
Mi, 24.05. 8:00 10.4° C wolkig
Mi, 24.05. 2:00 9.1° C bedeckt
Di, 23.05. 20:00 18.8° C bedeckt
Di, 23.05. 14:00 22.8° C wolkig
Ortszeit Temperatur Wetter
Mi, 24.05. 10:00 14.9° C wolkig
Mi, 24.05. 9:30 14.4° C wolkig
Mi, 24.05. 9:00 13.4° C wolkig
Mi, 24.05. 8:30 12.0° C bewölkt
Mi, 24.05. 8:00 10.4° C wolkig
Mi, 24.05. 7:30 10.3° C bewölkt
Ortszeit Relative Feuchte Sichtweite
Mi, 24.05. 8:00 83% 19 km
Mi, 24.05. 2:00 84% 35 km
Di, 23.05. 20:00 62% 30 km
Di, 23.05. 14:00 47% 20 km
Ortszeit Relative Feuchte Sichtweite
Mi, 24.05. 10:00 58% 24 km
Mi, 24.05. 9:30 58% 26 km
Mi, 24.05. 9:00 61% 22 km
Mi, 24.05. 8:30 78% 18 km
Mi, 24.05. 8:00 83% 19 km
Mi, 24.05. 7:30 84% 22 km
Ortszeit Niederschlagsmenge Niederschlagsart
Mi, 24.05. 8:00 0,0 l/m2 in 12 Std. -
Mi, 24.05. 2:00 0,0 l/m2 in 6 Std. -
Di, 23.05. 20:00 0,0 l/m2 in 12 Std. -
Di, 23.05. 14:00 0,0 l/m2 in 6 Std. -
Ortszeit Niederschlagsmenge Niederschlagsart
Mi, 24.05. 10:00 0,0 l/m2 in 1 Std. -
Mi, 24.05. 9:30 keine Meldung -
Mi, 24.05. 9:00 0,0 l/m2 in 1 Std. -
Mi, 24.05. 8:30 keine Meldung -
Mi, 24.05. 8:00 0,0 l/m2 in 1 Std. -
Mi, 24.05. 7:30 keine Meldung -
Ortszeit Stärke Spitze Richtung
km/h Bft. km/h Grad Sektor
Mi, 24.05. 8:00 6 1 9 280° W
Mi, 24.05. 2:00 6 1 41 270° W
Di, 23.05. 20:00 25 4 50 300° NW
Di, 23.05. 14:00 22 4 37 270° W
Ortszeit Stärke Spitze Richtung
km/h Bft. km/h Grad Sektor
Mi, 24.05. 10:00 13 3 24 280° W
Mi, 24.05. 9:30 13 3 24 300° NW
Mi, 24.05. 9:00 11 2 25 310° NW
Mi, 24.05. 8:30 4 1 11 320° NW
Mi, 24.05. 8:00 6 1 9 280° W
Mi, 24.05. 7:30 4 1 7 120° SO
Ortszeit Untergrenze Bedeckung Gattung
total tief tief mittel hoch
Mi, 24.05. 8:00 2700 m 6/8 6/8 - - -
Mi, 24.05. 2:00 5400 m 8/8 8/8 - - -
Di, 23.05. 20:00 1170 m 8/8 8/8 - - -
Di, 23.05. 14:00 1500 m 6/8 3/8 - - -
Ortszeit Bedeckungsgrad in Achtel und Wolkenuntergrenze
Mi, 24.05. 10:00 6(3300m)
Mi, 24.05. 9:30 1(1800m) 5(2400m) 5(3600m)
Mi, 24.05. 9:00 5(2400m) 7(3600m)
Mi, 24.05. 8:30 7(2700m)
Mi, 24.05. 8:00 6(2700m) 6(3900m)
Mi, 24.05. 7:30 7(2700m) 7(4500m)
Ortszeit Luftdruck NN (hPa) Tendenz (hPa in 3 Std.)
Mi, 24.05. 8:00 1023 + 0,8
Mi, 24.05. 2:00 1023 + 0,5
Di, 23.05. 20:00 1018 + 1,7
Di, 23.05. 14:00 1016 + 0,3
Ortszeit Luftdruck NN (hPa) Tendenz (hPa in 3 Std.)
Mi, 24.05. 10:00 1023 + 0,4
Mi, 24.05. 9:30 1023 + 0,7
Mi, 24.05. 9:00 1024 + 0,8
Mi, 24.05. 8:30 1023 + 0,8
Mi, 24.05. 8:00 1023 + 0,8
Mi, 24.05. 7:30 1023 + 0,7
Ortszeit Schneehöhe (cm)
Mi, 24.05. 8:00 -
Mi, 24.05. 2:00 -
Di, 23.05. 20:00 -
Di, 23.05. 14:00 -
Ortszeit Schneehöhe (cm)
Mi, 24.05. 10:00 -
Mi, 24.05. 9:30 -
Mi, 24.05. 9:00 -
Mi, 24.05. 8:30 -
Mi, 24.05. 8:00 -
Mi, 24.05. 7:30 -
Link zu dieser Seite / Seite empfehlen

Das Wetter in ...